Time;durP1;ratioP1;P1;durP2;ratioP2;P2;SDS_P1;SDS_P2;PMS_P1;PMS_P2;Temp;Humidity;BMP_temperature;BMP_pressure;BME280_temperature;BME280_humidity;BME280_pressure;Samples;Min_cycle;Max_cycle;Signal;HPM_P1;HPM_P2
2024/03/08 00:01:05;;;;;;;;;;;;;;;;;;5084351;28;20277;-61
2024/03/08 00:03:32;;;;;;;;;;;;;;;;;;5074440;28;20874;-60
2024/03/08 00:05:57;;;;;;;;;;;;;;;;;;5077160;28;20414;-61
2024/03/08 00:08:22;;;;;;;;;;;;;;;;;;5085198;28;19916;-61
2024/03/08 00:10:48;;;;;;;;;;;;;;;;;;5088849;28;19916;-60
2024/03/08 00:13:13;;;;;;;;;;;;;;;;;;5085066;28;20440;-60
2024/03/08 00:15:38;;;;;;;;;;;;;;;;;;5090533;28;19912;-60
2024/03/08 00:18:03;;;;;;;;;;;;;;;;;;5079962;28;20011;-60
2024/03/08 00:20:28;;;;;;;;;;;;;;;;;;5090838;28;19912;-61
2024/03/08 00:22:53;;;;;;;;;;;;;;;;;;5086139;28;19912;-61
2024/03/08 00:25:18;;;;;;;;;;;;;;;;;;5081364;28;19913;-62
2024/03/08 00:27:44;;;;;;;;;;;;;;;;;;5084740;28;19913;-61
2024/03/08 00:30:09;;;;;;;;;;;;;;;;;;5083080;28;19917;-61
2024/03/08 00:32:34;;;;;;;;;;;;;;;;;;5086085;28;20296;-61
2024/03/08 00:34:59;;;;;;;;;;;;;;;;;;5075800;28;19912;-61
2024/03/08 00:37:24;;;;;;;;;;;;;;;;;;5088259;28;20330;-61
2024/03/08 00:39:49;;;;;;;;;;;;;;;;;;5086278;28;19920;-62
2024/03/08 00:42:14;;;;;;;;;;;;;;;;;;5083832;28;19916;-61
2024/03/08 00:44:40;;;;;;;;;;;;;;;;;;5082473;28;19927;-61
2024/03/08 00:47:05;;;;;;;;;;;;;;;;;;5081125;28;19939;-61
2024/03/08 00:49:30;;;;;;;;;;;;;;;;;;5085308;28;19931;-61
2024/03/08 00:51:55;;;;;;;;;;;;;;;;;;5082649;28;19920;-61
2024/03/08 00:54:20;;;;;;;;;;;;;;;;;;5085780;28;19939;-61
2024/03/08 00:56:45;;;;;;;;;;;;;;;;;;5063472;28;19912;-61
2024/03/08 00:59:11;;;;;;;;;;;;;;;;;;5085779;28;19918;-58
2024/03/08 01:01:36;;;;;;;;;;;;;;;;;;5081709;28;19924;-62
2024/03/08 01:04:01;;;;;;;;;;;;;;;;;;5086537;28;20387;-62
2024/03/08 01:06:27;;;;;;;;;;;;;;;;;;5081935;28;19925;-62
2024/03/08 01:08:52;;;;;;;;;;;;;;;;;;5086126;28;20324;-61
2024/03/08 01:11:17;;;;;;;;;;;;;;;;;;5081620;28;19956;-62
2024/03/08 01:13:43;;;;;;;;;;;;;;;;;;5087090;28;19946;-61
2024/03/08 01:16:08;;;;;;;;;;;;;;;;;;5085464;28;19912;-62
2024/03/08 01:18:33;;;;;;;;;;;;;;;;;;5081331;28;19958;-62
2024/03/08 01:20:58;;;;;;;;;;;;;;;;;;5083564;28;19912;-61
2024/03/08 01:23:24;;;;;;;;;;;;;;;;;;5083218;28;19947;-62
2024/03/08 01:25:56;;;;;;;;;;;;;;;;;;5083947;28;19919;-62
2024/03/08 01:28:21;;;;;;;;;;;;;;;;;;5083226;28;19924;-61
2024/03/08 01:30:46;;;;;;;;;;;;;;;;;;5083227;28;19920;-61
2024/03/08 01:33:12;;;;;;;;;;;;;;;;;;5082748;28;20579;-61
2024/03/08 01:35:37;;;;;;;;;;;;;;;;;;5083615;28;19920;-61
2024/03/08 01:38:04;;;;;;;;;;;;;;;;;;5086017;28;20365;-61
2024/03/08 01:40:30;;;;;;;;;;;;;;;;;;5080657;28;20330;-60
2024/03/08 01:42:55;;;;;;;;;;;;;;;;;;5082238;28;19942;-61
2024/03/08 01:45:20;;;;;;;;;;;;;;;;;;5077495;28;19921;-62
2024/03/08 01:47:48;;;;;;;;;;;;;;;;;;5081201;28;19912;-62
2024/03/08 01:50:13;;;;;;;;;;;;;;;;;;5083880;28;19917;-62
2024/03/08 01:52:38;;;;;;;;;;;;;;;;;;5082384;28;19912;-62
2024/03/08 01:55:03;;;;;;;;;;;;;;;;;;5086112;28;19912;-61
2024/03/08 01:57:28;;;;;;;;;;;;;;;;;;5083585;28;20030;-62
2024/03/08 01:59:55;;;;;;;;;;;;;;;;;;5080007;28;19912;-61
2024/03/08 02:02:20;;;;;;;;;;;;;;;;;;5081069;28;19970;-60
2024/03/08 02:04:46;;;;;;;;;;;;;;;;;;5081206;28;19927;-60
2024/03/08 02:07:11;;;;;;;;;;;;;;;;;;5081813;28;19913;-61
2024/03/08 02:09:36;;;;;;;;;;;;;;;;;;5084915;28;19917;-60
2024/03/08 02:12:01;;;;;;;;;;;;;;;;;;5083997;28;20094;-61
2024/03/08 02:14:26;;;;;;;;;;;;;;;;;;5088087;28;19916;-60
2024/03/08 02:16:52;;;;;;;;;;;;;;;;;;5081357;28;19921;-61
2024/03/08 02:19:17;;;;;;;;;;;;;;;;;;5084990;28;19955;-62
2024/03/08 02:21:42;;;;;;;;;;;;;;;;;;5087088;28;19912;-61
2024/03/08 02:24:07;;;;;;;;;;;;;;;;;;5088650;28;19930;-61
2024/03/08 02:26:32;;;;;;;;;;;;;;;;;;5087671;28;20250;-62
2024/03/08 02:28:57;;;;;;;;;;;;;;;;;;5086321;28;19912;-61
2024/03/08 02:31:22;;;;;;;;;;;;;;;;;;5083005;28;20348;-62
2024/03/08 02:33:48;;;;;;;;;;;;;;;;;;5084030;28;20334;-61
2024/03/08 02:36:13;;;;;;;;;;;;;;;;;;5085410;28;19916;-60
2024/03/08 02:38:40;;;;;;;;;;;;;;;;;;5081808;28;20003;-61
2024/03/08 02:41:05;;;;;;;;;;;;;;;;;;5084057;28;19924;-62
2024/03/08 02:43:31;;;;;;;;;;;;;;;;;;5081446;28;19927;-61
2024/03/08 02:45:56;;;;;;;;;;;;;;;;;;5085922;28;20607;-59
2024/03/08 02:48:21;;;;;;;;;;;;;;;;;;5080677;28;20553;-59
2024/03/08 02:50:46;;;;;;;;;;;;;;;;;;5081897;28;19923;-61
2024/03/08 02:53:11;;;;;;;;;;;;;;;;;;5084367;28;19912;-60
2024/03/08 02:55:37;;;;;;;;;;;;;;;;;;5080528;28;19995;-61
2024/03/08 02:58:03;;;;;;;;;;;;;;;;;;5081842;28;19916;-60
2024/03/08 03:00:30;;;;;;;;;;;;;;;;;;5081640;28;19908;-60
2024/03/08 03:02:56;;;;;;;;;;;;;;;;;;5088966;28;19918;-60
2024/03/08 03:05:21;;;;;;;;;;;;;;;;;;5079386;28;20009;-60
2024/03/08 03:07:47;;;;;;;;;;;;;;;;;;5082964;28;19951;-61
2024/03/08 03:10:12;;;;;;;;;;;;;;;;;;5083375;28;20327;-61
2024/03/08 03:12:38;;;;;;;;;;;;;;;;;;5084042;28;19998;-61
2024/03/08 03:15:03;;;;;;;;;;;;;;;;;;5083298;28;20270;-61
2024/03/08 03:17:28;;;;;;;;;;;;;;;;;;5088341;28;19965;-56
2024/03/08 03:19:53;;;;;;;;;;;;;;;;;;5081846;28;19909;-55
2024/03/08 03:22:18;;;;;;;;;;;;;;;;;;5084026;28;19912;-56
2024/03/08 03:24:44;;;;;;;;;;;;;;;;;;5079808;28;19912;-55
2024/03/08 03:27:12;;;;;;;;;;;;;;;;;;5084111;28;19965;-55
2024/03/08 03:29:37;;;;;;;;;;;;;;;;;;5082768;28;20426;-55
2024/03/08 03:32:04;;;;;;;;;;;;;;;;;;5087248;28;19916;-56
2024/03/08 03:34:29;;;;;;;;;;;;;;;;;;5086937;28;19931;-56
2024/03/08 03:36:55;;;;;;;;;;;;;;;;;;5086309;28;19912;-56
2024/03/08 03:39:22;;;;;;;;;;;;;;;;;;5081185;28;20002;-56
2024/03/08 03:41:49;;;;;;;;;;;;;;;;;;5086184;28;19971;-56
2024/03/08 03:44:14;;;;;;;;;;;;;;;;;;5083767;28;19912;-54
2024/03/08 03:46:39;;;;;;;;;;;;;;;;;;5085339;28;19973;-56
2024/03/08 03:49:04;;;;;;;;;;;;;;;;;;5085546;28;19966;-56
2024/03/08 03:51:30;;;;;;;;;;;;;;;;;;5089198;28;19919;-56
2024/03/08 03:53:57;;;;;;;;;;;;;;;;;;5085107;28;19920;-56
2024/03/08 03:56:23;;;;;;;;;;;;;;;;;;5093156;28;19956;-56
2024/03/08 03:58:49;;;;;;;;;;;;;;;;;;5085203;28;19935;-56
2024/03/08 04:01:14;;;;;;;;;;;;;;;;;;5088110;28;19912;-56
2024/03/08 04:03:41;;;;;;;;;;;;;;;;;;5089114;28;19965;-56
2024/03/08 04:06:06;;;;;;;;;;;;;;;;;;5087569;28;19935;-56
2024/03/08 04:08:33;;;;;;;;;;;;;;;;;;5086584;28;20379;-56
2024/03/08 04:10:59;;;;;;;;;;;;;;;;;;5085771;28;20002;-57
2024/03/08 04:13:24;;;;;;;;;;;;;;;;;;5086593;28;20010;-56
2024/03/08 04:15:49;;;;;;;;;;;;;;;;;;5081648;28;19938;-56
2024/03/08 04:18:14;;;;;;;;;;;;;;;;;;5088206;28;20000;-59
2024/03/08 04:20:40;;;;;;;;;;;;;;;;;;5087217;28;19920;-57
2024/03/08 04:23:05;;;;;;;;;;;;;;;;;;5090171;28;20289;-55
2024/03/08 04:25:30;;;;;;;;;;;;;;;;;;5086558;28;19967;-56
2024/03/08 04:27:56;;;;;;;;;;;;;;;;;;5089042;28;20383;-56
2024/03/08 04:30:21;;;;;;;;;;;;;;;;;;5080176;28;19970;-55
2024/03/08 04:32:47;;;;;;;;;;;;;;;;;;5087895;28;19952;-55
2024/03/08 04:35:12;;;;;;;;;;;;;;;;;;5087633;28;19919;-56
2024/03/08 04:37:37;;;;;;;;;;;;;;;;;;5082292;28;20031;-56
2024/03/08 04:40:02;;;;;;;;;;;;;;;;;;5087209;28;19931;-56
2024/03/08 04:42:28;;;;;;;;;;;;;;;;;;5087103;28;19961;-56
2024/03/08 04:44:53;;;;;;;;;;;;;;;;;;5084154;28;19923;-55
2024/03/08 04:47:19;;;;;;;;;;;;;;;;;;5086053;28;20353;-56
2024/03/08 04:49:44;;;;;;;;;;;;;;;;;;5083234;28;19999;-55
2024/03/08 04:52:09;;;;;;;;;;;;;;;;;;5088531;28;20340;-55
2024/03/08 04:54:34;;;;;;;;;;;;;;;;;;5088188;28;20514;-56
2024/03/08 04:56:59;;;;;;;;;;;;;;;;;;5081030;28;19990;-55
2024/03/08 04:59:25;;;;;;;;;;;;;;;;;;5085738;28;20320;-55
2024/03/08 05:01:51;;;;;;;;;;;;;;;;;;5083366;28;19912;-56
2024/03/08 05:04:16;;;;;;;;;;;;;;;;;;5084997;28;20379;-56
2024/03/08 05:06:41;;;;;;;;;;;;;;;;;;5082334;28;19920;-56
2024/03/08 05:09:13;;;;;;;;;;;;;;;;;;5091574;28;19939;-55
2024/03/08 05:11:38;;;;;;;;;;;;;;;;;;5082359;28;19916;-56
2024/03/08 05:14:03;;;;;;;;;;;;;;;;;;5084249;28;20004;-56
2024/03/08 05:16:28;;;;;;;;;;;;;;;;;;5087950;28;19912;-55
2024/03/08 05:18:53;;;;;;;;;;;;;;;;;;5082701;28;19913;-57
2024/03/08 05:21:20;;;;;;;;;;;;;;;;;;5084430;28;19912;-55
2024/03/08 05:23:45;;;;;;;;;;;;;;;;;;5085850;28;20261;-55
2024/03/08 05:26:10;;;;;;;;;;;;;;;;;;5085225;28;20485;-55
2024/03/08 05:28:35;;;;;;;;;;;;;;;;;;5080382;28;19912;-56
2024/03/08 05:31:01;;;;;;;;;;;;;;;;;;5087486;28;19931;-56
2024/03/08 05:33:26;;;;;;;;;;;;;;;;;;5083228;28;19912;-56
2024/03/08 05:35:51;;;;;;;;;;;;;;;;;;5085329;28;19916;-55
2024/03/08 05:38:17;;;;;;;;;;;;;;;;;;5085834;28;19966;-55
2024/03/08 05:40:43;;;;;;;;;;;;;;;;;;5087194;28;19930;-55
2024/03/08 05:43:08;;;;;;;;;;;;;;;;;;5084698;28;20431;-56
2024/03/08 05:45:34;;;;;;;;;;;;;;;;;;5081885;28;19916;-56
2024/03/08 05:47:59;;;;;;;;;;;;;;;;;;5083292;28;19920;-55
2024/03/08 05:50:24;;;;;;;;;;;;;;;;;;5081969;28;20377;-56
2024/03/08 05:52:49;;;;;;;;;;;;;;;;;;5083928;28;20264;-56
2024/03/08 05:55:14;;;;;;;;;;;;;;;;;;5082545;28;19912;-55
2024/03/08 05:57:39;;;;;;;;;;;;;;;;;;5091345;28;20340;-56
2024/03/08 06:00:05;;;;;;;;;;;;;;;;;;5085964;28;19916;-55
2024/03/08 06:02:30;;;;;;;;;;;;;;;;;;5086200;28;20396;-56
2024/03/08 06:04:55;;;;;;;;;;;;;;;;;;5080829;28;20365;-56
2024/03/08 06:07:20;;;;;;;;;;;;;;;;;;5073244;28;20011;-57
2024/03/08 06:09:46;;;;;;;;;;;;;;;;;;5081731;28;19916;-56
2024/03/08 06:12:11;;;;;;;;;;;;;;;;;;5070064;28;19924;-56
2024/03/08 06:14:36;;;;;;;;;;;;;;;;;;5073966;28;19920;-55
2024/03/08 06:17:02;;;;;;;;;;;;;;;;;;5073363;28;20337;-57
2024/03/08 06:19:27;;;;;;;;;;;;;;;;;;5082334;28;19956;-56
2024/03/08 06:21:52;;;;;;;;;;;;;;;;;;5086504;28;20364;-57
2024/03/08 06:24:17;;;;;;;;;;;;;;;;;;5079802;28;19916;-55
2024/03/08 06:26:42;;;;;;;;;;;;;;;;;;5084539;28;19916;-56
2024/03/08 06:29:07;;;;;;;;;;;;;;;;;;5079480;28;19920;-57
2024/03/08 06:31:33;;;;;;;;;;;;;;;;;;5069072;28;19913;-56
2024/03/08 06:33:58;;;;;;;;;;;;;;;;;;5077589;28;19966;-57
2024/03/08 06:36:23;;;;;;;;;;;;;;;;;;5074145;28;19913;-57
2024/03/08 06:38:48;;;;;;;;;;;;;;;;;;5078936;28;19952;-57
2024/03/08 06:41:15;;;;;;;;;;;;;;;;;;5074161;28;20293;-57
2024/03/08 06:43:40;;;;;;;;;;;;;;;;;;5074091;28;19913;-57
2024/03/08 06:46:05;;;;;;;;;;;;;;;;;;5080553;28;19912;-57
2024/03/08 06:48:32;;;;;;;;;;;;;;;;;;5074903;28;19923;-60
2024/03/08 06:50:57;;;;;;;;;;;;;;;;;;5075476;28;19924;-63
2024/03/08 06:53:22;;;;;;;;;;;;;;;;;;5075965;28;19959;-63
2024/03/08 06:55:47;;;;;;;;;;;;;;;;;;5072313;28;20007;-63
2024/03/08 06:58:12;;;;;;;;;;;;;;;;;;5076984;28;19998;-63
2024/03/08 07:00:38;;;;;;;;;;;;;;;;;;5081056;28;19912;-63
2024/03/08 07:03:03;;;;;;;;;;;;;;;;;;5083421;28;19912;-60
2024/03/08 07:05:28;;;;;;;;;;;;;;;;;;5086170;28;19916;-64
2024/03/08 07:07:54;;;;;;;;;;;;;;;;;;5078155;28;19916;-64
2024/03/08 07:10:19;;;;;;;;;;;;;;;;;;5074390;28;19923;-64
2024/03/08 07:12:46;;;;;;;;;;;;;;;;;;5076226;28;19916;-64
2024/03/08 07:15:13;;;;;;;;;;;;;;;;;;5082145;28;20384;-61
2024/03/08 07:17:39;;;;;;;;;;;;;;;;;;5075127;28;20685;-65
2024/03/08 07:20:10;;;;;;;;;;;;;;;;;;5076501;28;19917;-64
2024/03/08 07:22:36;;;;;;;;;;;;;;;;;;5075424;28;19912;-64
2024/03/08 07:27:34;;;;;;;;;;;;;;;;;;5077272;28;19912;-63
2024/03/08 07:30:00;;;;;;;;;;;;;;;;;;5074938;28;20391;-63
2024/03/08 07:32:26;;;;;;;;;;;;;;;;;;5082772;28;20002;-64
2024/03/08 07:34:51;;;;;;;;;;;;;;;;;;5074472;28;19913;-63
2024/03/08 07:37:17;;;;;;;;;;;;;;;;;;5083776;28;19927;-64
2024/03/08 07:39:43;;;;;;;;;;;;;;;;;;5078552;28;20006;-64
2024/03/08 07:42:08;;;;;;;;;;;;;;;;;;5080952;28;20365;-64
2024/03/08 07:44:33;;;;;;;;;;;;;;;;;;5081212;28;19920;-64
2024/03/08 07:46:58;;;;;;;;;;;;;;;;;;5073186;28;19960;-63
2024/03/08 07:49:23;;;;;;;;;;;;;;;;;;5076300;28;19921;-64
2024/03/08 07:51:49;;;;;;;;;;;;;;;;;;5075524;28;19917;-64
2024/03/08 07:54:14;;;;;;;;;;;;;;;;;;5074395;28;19912;-65
2024/03/08 07:56:39;;;;;;;;;;;;;;;;;;5078347;28;19969;-63
2024/03/08 07:59:04;;;;;;;;;;;;;;;;;;5081542;28;19912;-63
2024/03/08 08:01:30;;;;;;;;;;;;;;;;;;5079149;28;20014;-64
2024/03/08 08:03:56;;;;;;;;;;;;;;;;;;5075682;28;20369;-63
2024/03/08 08:06:21;;;;;;;;;;;;;;;;;;5086792;28;19920;-63
2024/03/08 08:08:46;;;;;;;;;;;;;;;;;;5078540;28;19919;-66
2024/03/08 08:11:11;;;;;;;;;;;;;;;;;;5076265;28;19917;-62
2024/03/08 08:13:36;;;;;;;;;;;;;;;;;;5079498;28;20241;-65
2024/03/08 08:16:02;;;;;;;;;;;;;;;;;;5085800;28;20314;-62
2024/03/08 08:18:27;;;;;;;;;;;;;;;;;;5079403;28;20338;-64
2024/03/08 08:20:52;;;;;;;;;;;;;;;;;;5078991;28;20369;-64
2024/03/08 08:23:17;;;;;;;;;;;;;;;;;;5072938;28;19912;-64
2024/03/08 08:25:42;;;;;;;;;;;;;;;;;;5078988;28;19919;-63
2024/03/08 08:28:08;;;;;;;;;;;;;;;;;;5075006;28;19920;-64
2024/03/08 08:30:33;;;;;;;;;;;;;;;;;;5072189;28;20002;-63
2024/03/08 08:33:00;;;;;;;;;;;;;;;;;;5082357;28;19921;-63
2024/03/08 08:35:25;;;;;;;;;;;;;;;;;;5073275;28;19995;-64
2024/03/08 08:37:51;;;;;;;;;;;;;;;;;;5075094;28;19995;-63
2024/03/08 08:40:17;;;;;;;;;;;;;;;;;;5075967;28;19917;-64
2024/03/08 08:42:42;;;;;;;;;;;;;;;;;;5079027;28;19916;-64
2024/03/08 08:45:08;;;;;;;;;;;;;;;;;;5076962;28;19965;-64
2024/03/08 08:47:33;;;;;;;;;;;;;;;;;;5073239;28;20000;-63
2024/03/08 08:49:59;;;;;;;;;;;;;;;;;;5075913;28;19959;-64
2024/03/08 08:52:24;;;;;;;;;;;;;;;;;;5080264;28;19919;-63
2024/03/08 08:54:50;;;;;;;;;;;;;;;;;;5078151;28;19913;-63
2024/03/08 08:57:15;;;;;;;;;;;;;;;;;;5073633;28;19916;-64
2024/03/08 08:59:41;;;;;;;;;;;;;;;;;;5078598;28;20387;-63
2024/03/08 09:02:06;;;;;;;;;;;;;;;;;;5074873;28;21552;-64
2024/03/08 09:04:31;;;;;;;;;;;;;;;;;;5079350;28;20917;-65
2024/03/08 09:06:56;;;;;;;;;;;;;;;;;;5075676;28;20618;-63
2024/03/08 09:09:21;;;;;;;;;;;;;;;;;;5079524;28;19917;-57
2024/03/08 09:11:47;;;;;;;;;;;;;;;;;;5081749;28;19920;-57
2024/03/08 09:14:12;;;;;;;;;;;;;;;;;;5078301;28;20395;-57
2024/03/08 09:16:37;;;;;;;;;;;;;;;;;;5073764;28;20321;-58
2024/03/08 09:19:02;;;;;;;;;;;;;;;;;;5078811;28;19996;-57
2024/03/08 09:21:27;;;;;;;;;;;;;;;;;;5075003;28;20322;-58
2024/03/08 09:23:52;;;;;;;;;;;;;;;;;;5072207;28;19913;-59
2024/03/08 09:26:17;;;;;;;;;;;;;;;;;;5073760;28;20006;-58
2024/03/08 09:28:42;;;;;;;;;;;;;;;;;;5081948;28;19951;-57
2024/03/08 09:31:08;;;;;;;;;;;;;;;;;;5082377;28;19916;-57
2024/03/08 09:33:33;;;;;;;;;;;;;;;;;;5077905;28;19913;-56
2024/03/08 09:35:58;;;;;;;;;;;;;;;;;;5072360;28;19919;-57
2024/03/08 09:38:24;;;;;;;;;;;;;;;;;;5075064;28;19913;-57
2024/03/08 09:40:50;;;;;;;;;;;;;;;;;;5077776;28;20281;-57
2024/03/08 09:43:15;;;;;;;;;;;;;;;;;;5074334;28;19919;-57
2024/03/08 09:45:41;;;;;;;;;;;;;;;;;;5076577;28;19912;-55
2024/03/08 09:48:06;;;;;;;;;;;;;;;;;;5075817;28;19999;-57
2024/03/08 09:50:32;;;;;;;;;;;;;;;;;;5072951;28;19924;-57
2024/03/08 09:52:58;;;;;;;;;;;;;;;;;;5074331;28;19978;-57
2024/03/08 09:55:23;;;;;;;;;;;;;;;;;;5074381;28;19916;-57
2024/03/08 10:00:34;;;;;;;;;;;;;;;;;;5058860;28;20381;-56
2024/03/08 10:02:59;;;;;;;;;;;;;;;;;;5088560;28;20022;-55
2024/03/08 10:05:24;;;;;;;;;;;;;;;;;;5074961;28;20365;-57
2024/03/08 10:07:49;;;;;;;;;;;;;;;;;;5071371;28;20425;-57
2024/03/08 10:10:14;;;;;;;;;;;;;;;;;;5073811;28;20438;-56
2024/03/08 10:12:39;;;;;;;;;;;;;;;;;;5078867;28;20527;-56
2024/03/08 10:15:04;;;;;;;;;;;;;;;;;;5070120;28;20285;-56
2024/03/08 10:17:32;;;;;;;;;;;;;;;;;;5075075;28;19919;-62
2024/03/08 10:19:59;;;;;;;;;;;;;;;;;;5076265;28;19923;-62
2024/03/08 10:22:24;;;;;;;;;;;;;;;;;;5070701;28;19920;-62
2024/03/08 10:24:50;;;;;;;;;;;;;;;;;;5081164;28;19916;-63
2024/03/08 10:27:16;;;;;;;;;;;;;;;;;;5072415;28;19912;-63
2024/03/08 10:29:44;;;;;;;;;;;;;;;;;;5077553;28;20300;-58
2024/03/08 10:32:09;;;;;;;;;;;;;;;;;;5060780;28;19917;-56
2024/03/08 10:34:34;;;;;;;;;;;;;;;;;;5082419;28;20017;-57
2024/03/08 10:36:59;;;;;;;;;;;;;;;;;;5070825;28;20367;-57
2024/03/08 10:39:24;;;;;;;;;;;;;;;;;;5077448;28;19928;-56
2024/03/08 10:41:50;;;;;;;;;;;;;;;;;;5072069;28;19931;-56
2024/03/08 10:44:16;;;;;;;;;;;;;;;;;;5075100;28;19940;-57
2024/03/08 10:46:41;;;;;;;;;;;;;;;;;;5077070;28;19970;-59
2024/03/08 10:49:07;;;;;;;;;;;;;;;;;;5075069;28;19912;-55
2024/03/08 10:51:32;;;;;;;;;;;;;;;;;;5075460;28;20361;-57
2024/03/08 10:53:57;;;;;;;;;;;;;;;;;;5075840;28;19913;-56
2024/03/08 10:56:22;;;;;;;;;;;;;;;;;;5073380;28;19991;-56
2024/03/08 10:58:48;;;;;;;;;;;;;;;;;;5071990;28;19912;-57
2024/03/08 11:01:13;;;;;;;;;;;;;;;;;;5073063;28;19916;-57
2024/03/08 11:03:38;;;;;;;;;;;;;;;;;;5075339;28;19926;-56
2024/03/08 11:06:03;;;;;;;;;;;;;;;;;;5075785;28;19917;-58
2024/03/08 11:08:28;;;;;;;;;;;;;;;;;;5073147;28;20495;-57
2024/03/08 11:10:56;;;;;;;;;;;;;;;;;;5076861;28;20369;-57
2024/03/08 11:13:21;;;;;;;;;;;;;;;;;;5076010;28;19921;-57
2024/03/08 11:15:47;;;;;;;;;;;;;;;;;;5072942;28;19965;-56
2024/03/08 11:18:12;;;;;;;;;;;;;;;;;;5069982;28;20009;-59
2024/03/08 11:20:37;;;;;;;;;;;;;;;;;;5073006;28;20261;-57
2024/03/08 11:23:02;;;;;;;;;;;;;;;;;;5080399;28;20018;-57
2024/03/08 11:25:27;;;;;;;;;;;;;;;;;;5073363;28;19912;-57
2024/03/08 11:27:53;;;;;;;;;;;;;;;;;;5071892;28;19912;-57
2024/03/08 11:30:23;;;;;;;;;;;;;;;;;;5070456;28;20370;-58
2024/03/08 11:32:49;;;;;;;;;;;;;;;;;;5076209;28;19912;-56
2024/03/08 11:35:16;;;;;;;;;;;;;;;;;;5070011;28;19913;-59
2024/03/08 11:37:41;;;;;;;;;;;;;;;;;;5078152;28;19920;-57
2024/03/08 11:40:07;;;;;;;;;;;;;;;;;;5071455;28;19943;-56
2024/03/08 11:42:32;;;;;;;;;;;;;;;;;;5075188;28;19931;-57
2024/03/08 11:44:57;;;;;;;;;;;;;;;;;;5071213;28;19920;-58
2024/03/08 11:47:23;;;;;;;;;;;;;;;;;;5076752;28;19912;-58
2024/03/08 11:49:48;;;;;;;;;;;;;;;;;;5079925;28;19934;-57
2024/03/08 11:52:13;;;;;;;;;;;;;;;;;;5075910;28;19922;-57
2024/03/08 11:54:39;;;;;;;;;;;;;;;;;;5079891;28;19920;-56
2024/03/08 11:57:04;;;;;;;;;;;;;;;;;;5084624;28;19916;-57
2024/03/08 11:59:30;;;;;;;;;;;;;;;;;;5082782;28;19995;-56
2024/03/08 12:01:55;;;;;;;;;;;;;;;;;;5079885;28;19912;-57
2024/03/08 12:04:24;;;;;;;;;;;;;;;;;;5075059;28;19912;-57
2024/03/08 12:06:49;;;;;;;;;;;;;;;;;;5080228;28;19948;-57
2024/03/08 12:09:14;;;;;;;;;;;;;;;;;;5080373;28;19971;-56
2024/03/08 12:11:39;;;;;;;;;;;;;;;;;;5075266;28;19920;-60
2024/03/08 12:14:06;;;;;;;;;;;;;;;;;;5078577;28;20380;-56
2024/03/08 12:16:32;;;;;;;;;;;;;;;;;;5078221;28;19924;-58
2024/03/08 12:18:57;;;;;;;;;;;;;;;;;;5085949;28;19921;-57
2024/03/08 12:21:25;;;;;;;;;;;;;;;;;;5078672;28;19919;-56
2024/03/08 12:23:50;;;;;;;;;;;;;;;;;;5079851;28;19912;-58
2024/03/08 12:26:15;;;;;;;;;;;;;;;;;;5077457;28;19916;-58
2024/03/08 12:28:40;;;;;;;;;;;;;;;;;;5079568;28;19912;-56
2024/03/08 12:31:06;;;;;;;;;;;;;;;;;;5076750;28;19977;-58
2024/03/08 12:33:31;;;;;;;;;;;;;;;;;;5080268;28;20001;-57
2024/03/08 12:35:58;;;;;;;;;;;;;;;;;;5077169;28;19923;-56
2024/03/08 12:38:24;;;;;;;;;;;;;;;;;;5079934;28;20065;-56
2024/03/08 12:40:49;;;;;;;;;;;;;;;;;;5074794;28;20015;-57
2024/03/08 12:43:17;;;;;;;;;;;;;;;;;;5074514;28;20408;-57
2024/03/08 12:45:43;;;;;;;;;;;;;;;;;;5075816;28;19913;-59
2024/03/08 12:48:08;;;;;;;;;;;;;;;;;;5081857;28;19912;-61
2024/03/08 12:50:33;;;;;;;;;;;;;;;;;;5076450;28;19920;-60
2024/03/08 12:52:59;;;;;;;;;;;;;;;;;;5083123;28;19919;-61
2024/03/08 12:55:24;;;;;;;;;;;;;;;;;;5089831;28;19911;-61
2024/03/08 12:57:49;;;;;;;;;;;;;;;;;;5090477;28;19939;-61
2024/03/08 13:00:19;;;;;;;;;;;;;;;;;;5085250;28;19916;-61
2024/03/08 13:02:44;;;;;;;;;;;;;;;;;;5077005;28;19912;-63
2024/03/08 13:05:10;;;;;;;;;;;;;;;;;;5078492;28;19916;-62
2024/03/08 13:07:37;;;;;;;;;;;;;;;;;;5077775;28;19916;-61
2024/03/08 13:10:02;;;;;;;;;;;;;;;;;;5072481;28;19925;-62
2024/03/08 13:12:27;;;;;;;;;;;;;;;;;;5072730;28;19917;-62
2024/03/08 13:14:56;;;;;;;;;;;;;;;;;;5074210;28;19912;-63
2024/03/08 13:17:22;;;;;;;;;;;;;;;;;;5072882;28;19913;-61
2024/03/08 13:19:47;;;;;;;;;;;;;;;;;;5072804;28;19916;-61
2024/03/08 13:22:13;;;;;;;;;;;;;;;;;;5073474;28;19957;-62
2024/03/08 13:24:38;;;;;;;;;;;;;;;;;;5076823;28;19920;-59
2024/03/08 13:27:16;;;;;;;;;;;;;;;;;;5075571;28;19962;-61
2024/03/08 13:29:42;;;;;;;;;;;;;;;;;;5075323;28;19998;-61
2024/03/08 13:32:11;;;;;;;;;;;;;;;;;;5074017;28;19936;-61
2024/03/08 13:34:36;;;;;;;;;;;;;;;;;;5074281;28;19920;-60
2024/03/08 13:37:03;;;;;;;;;;;;;;;;;;5071015;28;19913;-62
2024/03/08 13:39:29;;;;;;;;;;;;;;;;;;5074731;28;19913;-62
2024/03/08 13:41:54;;;;;;;;;;;;;;;;;;5076080;28;19935;-62
2024/03/08 13:44:19;;;;;;;;;;;;;;;;;;5073410;28;19975;-62
2024/03/08 13:46:45;;;;;;;;;;;;;;;;;;5073717;28;19916;-62
2024/03/08 13:49:10;;;;;;;;;;;;;;;;;;5072289;28;19924;-61
2024/03/08 13:51:35;;;;;;;;;;;;;;;;;;5071614;28;20435;-60
2024/03/08 13:54:01;;;;;;;;;;;;;;;;;;5074841;28;20242;-62
2024/03/08 13:56:26;;;;;;;;;;;;;;;;;;5073967;28;20266;-61
2024/03/08 13:58:51;;;;;;;;;;;;;;;;;;5076655;28;20380;-57
2024/03/08 14:01:16;;;;;;;;;;;;;;;;;;5071768;28;19916;-56
2024/03/08 14:03:42;;;;;;;;;;;;;;;;;;5080942;28;20536;-56
2024/03/08 14:06:07;;;;;;;;;;;;;;;;;;5071922;28;19917;-56
2024/03/08 14:08:33;;;;;;;;;;;;;;;;;;5070508;28;20003;-56
2024/03/08 14:10:58;;;;;;;;;;;;;;;;;;5076433;28;20301;-56
2024/03/08 14:13:25;;;;;;;;;;;;;;;;;;5077760;28;19913;-56
2024/03/08 14:15:50;;;;;;;;;;;;;;;;;;5081047;28;19920;-56
2024/03/08 14:18:15;;;;;;;;;;;;;;;;;;5081073;28;19919;-58
2024/03/08 14:20:41;;;;;;;;;;;;;;;;;;5072063;28;19912;-57
2024/03/08 14:23:08;;;;;;;;;;;;;;;;;;5082782;28;19916;-56
2024/03/08 14:25:33;;;;;;;;;;;;;;;;;;5079830;28;19944;-58
2024/03/08 14:28:02;;;;;;;;;;;;;;;;;;5073451;28;19951;-59
2024/03/08 14:30:37;;;;;;;;;;;;;;;;;;5081698;28;19920;-57
2024/03/08 14:33:03;;;;;;;;;;;;;;;;;;5084700;28;20332;-56
2024/03/08 14:35:29;;;;;;;;;;;;;;;;;;5076465;28;19951;-57
2024/03/08 14:37:54;;;;;;;;;;;;;;;;;;5078368;28;19912;-56
2024/03/08 14:40:22;;;;;;;;;;;;;;;;;;5075239;28;20303;-57
2024/03/08 14:42:49;;;;;;;;;;;;;;;;;;5076444;28;19920;-57
2024/03/08 14:45:14;;;;;;;;;;;;;;;;;;5074011;28;19995;-58
2024/03/08 14:47:39;;;;;;;;;;;;;;;;;;5080768;28;19995;-56
2024/03/08 14:50:07;;;;;;;;;;;;;;;;;;5080220;28;19920;-58
2024/03/08 14:52:32;;;;;;;;;;;;;;;;;;5072234;28;19927;-57
2024/03/08 14:54:58;;;;;;;;;;;;;;;;;;5069510;28;19912;-58
2024/03/08 14:57:23;;;;;;;;;;;;;;;;;;5076915;28;19912;-57
2024/03/08 14:59:48;;;;;;;;;;;;;;;;;;5080422;28;19936;-56
2024/03/08 15:02:13;;;;;;;;;;;;;;;;;;5072585;28;19912;-57
2024/03/08 15:04:40;;;;;;;;;;;;;;;;;;5078748;28;19917;-57
2024/03/08 15:07:06;;;;;;;;;;;;;;;;;;5070805;28;20019;-57
2024/03/08 15:09:39;;;;;;;;;;;;;;;;;;5071011;28;19991;-61
2024/03/08 15:12:04;;;;;;;;;;;;;;;;;;5073697;28;19939;-61
2024/03/08 15:14:29;;;;;;;;;;;;;;;;;;5072382;28;19912;-61
2024/03/08 15:16:54;;;;;;;;;;;;;;;;;;5071167;28;19916;-61
2024/03/08 15:19:20;;;;;;;;;;;;;;;;;;5071874;28;19967;-62
2024/03/08 15:21:45;;;;;;;;;;;;;;;;;;5071124;28;19919;-61
2024/03/08 15:24:15;;;;;;;;;;;;;;;;;;5078165;28;19912;-59
2024/03/08 15:26:40;;;;;;;;;;;;;;;;;;5079766;28;19912;-61
2024/03/08 15:29:05;;;;;;;;;;;;;;;;;;5081546;28;19918;-60
2024/03/08 15:31:32;;;;;;;;;;;;;;;;;;5082741;28;20157;-60
2024/03/08 15:34:00;;;;;;;;;;;;;;;;;;5074791;28;19916;-61
2024/03/08 15:36:28;;;;;;;;;;;;;;;;;;5077922;28;19916;-61
2024/03/08 15:38:53;;;;;;;;;;;;;;;;;;5079059;28;20276;-61
2024/03/08 15:41:20;;;;;;;;;;;;;;;;;;5076108;28;20353;-61
2024/03/08 15:43:45;;;;;;;;;;;;;;;;;;5074440;28;19913;-61
2024/03/08 15:46:11;;;;;;;;;;;;;;;;;;5081930;28;20547;-60
2024/03/08 15:48:37;;;;;;;;;;;;;;;;;;5078588;28;20353;-61
2024/03/08 15:51:02;;;;;;;;;;;;;;;;;;5075347;28;20004;-60
2024/03/08 15:53:27;;;;;;;;;;;;;;;;;;5084582;28;19912;-61
2024/03/08 15:55:52;;;;;;;;;;;;;;;;;;5096498;28;20410;-60
2024/03/08 15:58:18;;;;;;;;;;;;;;;;;;5078208;28;19912;-61
2024/03/08 16:00:46;;;;;;;;;;;;;;;;;;5076084;28;20844;-62
2024/03/08 16:03:11;;;;;;;;;;;;;;;;;;5075906;28;19963;-61
2024/03/08 16:05:36;;;;;;;;;;;;;;;;;;5078142;28;19916;-61
2024/03/08 16:08:02;;;;;;;;;;;;;;;;;;5092264;28;19920;-61
2024/03/08 16:10:28;;;;;;;;;;;;;;;;;;5076640;28;19920;-62
2024/03/08 16:12:53;;;;;;;;;;;;;;;;;;5076583;28;20373;-69
2024/03/08 16:15:20;;;;;;;;;;;;;;;;;;5073319;28;19966;-63
2024/03/08 16:17:45;;;;;;;;;;;;;;;;;;5076470;28;19938;-61
2024/03/08 16:20:13;;;;;;;;;;;;;;;;;;5076851;28;20006;-59
2024/03/08 16:22:38;;;;;;;;;;;;;;;;;;5077793;28;19954;-58
2024/03/08 16:25:04;;;;;;;;;;;;;;;;;;5089986;28;19962;-60
2024/03/08 16:27:32;;;;;;;;;;;;;;;;;;5088144;28;21149;-59
2024/03/08 16:29:57;;;;;;;;;;;;;;;;;;5083382;28;19964;-59
2024/03/08 16:32:22;;;;;;;;;;;;;;;;;;5080892;28;19921;-58
2024/03/08 16:34:47;;;;;;;;;;;;;;;;;;5084743;28;20007;-58
2024/03/08 16:37:12;;;;;;;;;;;;;;;;;;5079602;28;19923;-58
2024/03/08 16:39:37;;;;;;;;;;;;;;;;;;5080515;28;19923;-59